createdAt,value
2023-05-21T00:00:11.946Z,20.8
2023-05-21T00:10:11.594Z,20.6
2023-05-21T00:20:11.390Z,20.6
2023-05-21T00:30:10.822Z,20.6
2023-05-21T00:40:09.908Z,20.4
2023-05-21T00:50:09.981Z,20.4
2023-05-21T01:00:09.563Z,20.5
2023-05-21T01:10:09.162Z,20.5
2023-05-21T01:20:09.332Z,20.4
2023-05-21T01:30:08.767Z,20.4
2023-05-21T01:40:08.364Z,20.4
2023-05-21T01:50:08.108Z,20.5
2023-05-21T02:00:07.177Z,20.4
2023-05-21T02:10:07.487Z,20.3
2023-05-21T02:20:07.018Z,20.2
2023-05-21T02:30:06.911Z,20.3
2023-05-21T02:40:06.445Z,20.6
2023-05-21T02:50:06.425Z,20.6
2023-05-21T03:10:06.805Z,20.2
2023-05-21T03:20:06.677Z,20.5
2023-05-21T03:30:06.887Z,20.2
2023-05-21T03:40:07.091Z,20.4
2023-05-21T03:50:07.477Z,20.2
2023-05-21T04:00:07.170Z,20.3
2023-05-21T04:10:07.932Z,20.1
2023-05-21T04:20:09.104Z,20.3
2023-05-21T04:30:10.086Z,20.1
2023-05-21T04:40:11.502Z,20.1
2023-05-21T04:50:12.732Z,20.3
2023-05-21T05:00:13.680Z,20.4
2023-05-21T05:10:14.335Z,20.2
2023-05-21T05:20:17.764Z,20.1
2023-05-21T05:30:25.843Z,20.9
2023-05-21T05:40:36.558Z,20.7
2023-05-21T05:50:51.120Z,20.3
2023-05-21T06:01:06.537Z,20.9
2023-05-21T06:11:21.781Z,21.1
2023-05-21T06:21:37.610Z,21
2023-05-21T06:31:54.080Z,21.4
2023-05-21T06:42:09.977Z,21.3
2023-05-21T06:52:24.682Z,21.2
2023-05-21T07:02:39.101Z,21.4
2023-05-21T07:12:55.082Z,21.3
2023-05-21T07:23:11.726Z,21.3
2023-05-21T07:33:28.731Z,21.5
2023-05-21T07:43:44.754Z,22.1
2023-05-21T07:53:59.549Z,22.3
2023-05-21T08:04:14.493Z,22.4
2023-05-21T08:14:28.454Z,22.4
2023-05-21T08:24:42.068Z,22.6
2023-05-21T08:34:56.820Z,22.4
2023-05-21T08:45:09.385Z,22.4
2023-05-21T08:55:22.145Z,22.6
2023-05-21T09:10:23.508Z,23.3
2023-05-21T09:20:37.792Z,21.9
2023-05-21T09:30:53.755Z,22.4
2023-05-21T09:41:13.548Z,22.4
2023-05-21T09:51:30.834Z,20.7
2023-05-21T10:01:50.493Z,22.3
2023-05-21T10:12:11.083Z,22.6
2023-05-21T10:22:31.726Z,22.8
2023-05-21T10:32:47.933Z,22.5
2023-05-21T10:43:03.144Z,23.2
2023-05-21T10:53:22.099Z,22.8
2023-05-21T11:03:37.998Z,22.6
2023-05-21T11:13:40.687Z,22.9
2023-05-21T11:23:47.489Z,22.8
2023-05-21T11:33:56.238Z,22.6
2023-05-21T11:43:57.262Z,22.6
2023-05-21T11:53:58.295Z,22.9
2023-05-21T12:03:58.082Z,22.6
2023-05-21T12:13:57.165Z,22.5
2023-05-21T12:23:56.438Z,22.6
2023-05-21T12:33:56.251Z,22.4
2023-05-21T12:43:55.332Z,22.4
2023-05-21T12:53:54.421Z,22.3
2023-05-21T13:03:54.274Z,22.3
2023-05-21T13:13:54.816Z,22.3
2023-05-21T13:23:55.371Z,22.2
2023-05-21T13:33:54.975Z,22.3
2023-05-21T13:43:55.889Z,22.1
2023-05-21T13:53:57.386Z,22.6
2023-05-21T14:03:57.058Z,22.2
2023-05-21T14:13:57.041Z,22.6
2023-05-21T14:23:57.758Z,22.7
2023-05-21T14:33:58.429Z,22.2
2023-05-21T14:43:58.110Z,22.2
2023-05-21T14:53:57.885Z,22.8
2023-05-21T15:10:06.263Z,22.4
2023-05-21T15:20:06.681Z,22.2
2023-05-21T15:30:06.516Z,22.2
2023-05-21T15:40:06.160Z,22.3
2023-05-21T15:50:06.382Z,22.2
2023-05-21T16:00:05.596Z,22.2
2023-05-21T16:10:06.754Z,22.1
2023-05-21T16:20:07.661Z,22.1
2023-05-21T16:30:09.252Z,21.9
2023-05-21T16:40:09.860Z,22
2023-05-21T16:50:10.535Z,22.3
2023-05-21T17:00:11.418Z,21.9
2023-05-21T17:10:11.500Z,21.9
2023-05-21T17:20:10.769Z,21.9
2023-05-21T17:30:10.636Z,21.7
2023-05-21T17:40:10.223Z,21.7
2023-05-21T17:50:10.071Z,21.7
2023-05-21T18:00:09.473Z,21.7
2023-05-21T18:10:09.196Z,21.6
2023-05-21T18:20:09.575Z,22
2023-05-21T18:30:11.165Z,22
2023-05-21T18:40:12.078Z,21.9
2023-05-21T18:50:12.948Z,22.1
2023-05-21T19:00:14.087Z,21.7
2023-05-21T19:10:15.394Z,21.9
2023-05-21T19:20:16.293Z,21.6
2023-05-21T19:30:17.301Z,21.7
2023-05-21T19:40:18.278Z,21.7
2023-05-21T19:50:19.309Z,21.6
2023-05-21T20:00:20.341Z,21.5
2023-05-21T20:10:21.965Z,21.6
2023-05-21T20:20:23.409Z,21.6
2023-05-21T20:30:25.099Z,21.6
2023-05-21T20:40:26.801Z,21.4
2023-05-21T20:50:28.284Z,21.4
2023-05-21T21:10:07.385Z,21.4
2023-05-21T21:20:08.606Z,21.4
2023-05-21T21:30:10.149Z,21.4
2023-05-21T21:40:11.569Z,21.3
2023-05-21T21:50:12.922Z,21.3
2023-05-21T22:00:15.382Z,21.4
2023-05-21T22:10:17.084Z,21.3
2023-05-21T22:20:19.036Z,21.1
2023-05-21T22:30:21.142Z,21.2
2023-05-21T22:40:23.181Z,21.1
2023-05-21T22:50:24.538Z,21
2023-05-21T23:00:26.210Z,20.9
2023-05-21T23:10:27.773Z,21.1
2023-05-21T23:20:29.213Z,21.2
2023-05-21T23:30:30.955Z,21.2
2023-05-21T23:40:33.662Z,21.1
2023-05-21T23:50:36.594Z,21.2
